sensor_id;sensor_type;location;lat;lon;timestamp;pressure;altitude;pressure_sealevel;temperature;humidity
14902;BME280;7542;49.078;9.194;2022-10-16T00:01:14;98496.09;;;22.04;57.46
14902;BME280;7542;49.078;9.194;2022-10-16T00:02:16;98489.38;;;22.01;57.47
14902;BME280;7542;49.078;9.194;2022-10-16T00:03:18;98490.16;;;22.02;57.33
14902;BME280;7542;49.078;9.194;2022-10-16T00:04:20;98492.03;;;22.01;57.71
14902;BME280;7542;49.078;9.194;2022-10-16T00:05:21;98490.41;;;22.00;57.40
14902;BME280;7542;49.078;9.194;2022-10-16T00:06:25;98486.69;;;22.01;57.38
14902;BME280;7542;49.078;9.194;2022-10-16T00:07:27;98493.91;;;22.00;57.58
14902;BME280;7542;49.078;9.194;2022-10-16T00:08:30;98485.63;;;22.02;57.25
14902;BME280;7542;49.078;9.194;2022-10-16T00:09:32;98499.78;;;22.03;57.34
14902;BME280;7542;49.078;9.194;2022-10-16T00:10:35;98489.38;;;22.01;57.84
14902;BME280;7542;49.078;9.194;2022-10-16T00:11:39;98484.03;;;22.01;57.60
14902;BME280;7542;49.078;9.194;2022-10-16T00:12:41;98483.22;;;22.00;57.21
14902;BME280;7542;49.078;9.194;2022-10-16T00:13:45;98485.63;;;22.02;57.53
14902;BME280;7542;49.078;9.194;2022-10-16T00:14:47;98479.75;;;22.00;57.31
14902;BME280;7542;49.078;9.194;2022-10-16T00:15:49;98473.34;;;22.01;57.37
14902;BME280;7542;49.078;9.194;2022-10-16T00:16:51;98471.72;;;22.00;57.61
14902;BME280;7542;49.078;9.194;2022-10-16T00:17:52;98473.59;;;21.99;57.61
14902;BME280;7542;49.078;9.194;2022-10-16T00:18:55;98466.38;;;22.00;57.32
14902;BME280;7542;49.078;9.194;2022-10-16T00:19:57;98464.78;;;21.99;57.41
14902;BME280;7542;49.078;9.194;2022-10-16T00:21:05;98465.84;;;21.98;57.60
14902;BME280;7542;49.078;9.194;2022-10-16T00:22:07;98469.81;;;21.95;57.33
14902;BME280;7542;49.078;9.194;2022-10-16T00:23:09;98472.22;;;21.97;57.45
14902;BME280;7542;49.078;9.194;2022-10-16T00:24:12;98472.22;;;21.97;57.23
14902;BME280;7542;49.078;9.194;2022-10-16T00:25:13;98470.63;;;21.96;57.12
14902;BME280;7542;49.078;9.194;2022-10-16T00:26:17;98471.13;;;21.93;57.52
14902;BME280;7542;49.078;9.194;2022-10-16T00:27:19;98473.78;;;21.93;56.98
14902;BME280;7542;49.078;9.194;2022-10-16T00:28:20;98470.28;;;21.92;57.47
14902;BME280;7542;49.078;9.194;2022-10-16T00:29:22;98469.25;;;21.93;57.64
14902;BME280;7542;49.078;9.194;2022-10-16T00:30:24;98474.00;;;21.91;57.44
14902;BME280;7542;49.078;9.194;2022-10-16T00:31:28;98474.00;;;21.91;57.17
14902;BME280;7542;49.078;9.194;2022-10-16T00:32:31;98477.47;;;21.92;57.65
14902;BME280;7542;49.078;9.194;2022-10-16T00:33:33;98476.94;;;21.90;57.33
14902;BME280;7542;49.078;9.194;2022-10-16T00:34:36;98482.25;;;21.90;57.59
14902;BME280;7542;49.078;9.194;2022-10-16T00:35:37;98489.22;;;21.91;57.30
14902;BME280;7542;49.078;9.194;2022-10-16T00:36:39;98479.59;;;21.90;57.53
14902;BME280;7542;49.078;9.194;2022-10-16T00:37:41;98488.41;;;21.90;57.55
14902;BME280;7542;49.078;9.194;2022-10-16T00:38:43;98489.47;;;21.89;57.25
14902;BME280;7542;49.078;9.194;2022-10-16T00:39:45;98491.34;;;21.89;57.51
14902;BME280;7542;49.078;9.194;2022-10-16T00:40:47;98495.63;;;21.90;57.30
14902;BME280;7542;49.078;9.194;2022-10-16T00:41:49;98492.13;;;21.89;57.34
14902;BME280;7542;49.078;9.194;2022-10-16T00:42:51;98491.88;;;21.91;57.32
14902;BME280;7542;49.078;9.194;2022-10-16T00:43:58;98498.28;;;21.90;57.19
14902;BME280;7542;49.078;9.194;2022-10-16T00:45:00;98508.97;;;21.90;57.33
14902;BME280;7542;49.078;9.194;2022-10-16T00:46:35;98499.09;;;21.90;57.48
14902;BME280;7542;49.078;9.194;2022-10-16T00:47:45;98491.09;;;21.90;57.20
14902;BME280;7542;49.078;9.194;2022-10-16T00:49:16;98490.84;;;21.92;57.25
14902;BME280;7542;49.078;9.194;2022-10-16T00:50:33;98485.50;;;21.92;57.41
14902;BME280;7542;49.078;9.194;2022-10-16T00:51:45;98483.88;;;21.91;57.51
14902;BME280;7542;49.078;9.194;2022-10-16T00:52:49;98486.56;;;21.91;57.34
14902;BME280;7542;49.078;9.194;2022-10-16T00:53:52;98493.75;;;21.90;57.26
14902;BME280;7542;49.078;9.194;2022-10-16T00:54:55;98492.94;;;21.90;57.48
14902;BME280;7542;49.078;9.194;2022-10-16T00:55:58;98495.63;;;21.90;57.15
14902;BME280;7542;49.078;9.194;2022-10-16T00:57:04;98494.56;;;21.91;57.20
14902;BME280;7542;49.078;9.194;2022-10-16T00:58:06;98502.56;;;21.91;57.26
14902;BME280;7542;49.078;9.194;2022-10-16T00:59:25;98491.09;;;21.90;57.54
14902;BME280;7542;49.078;9.194;2022-10-16T01:00:27;98495.38;;;21.91;57.57
14902;BME280;7542;49.078;9.194;2022-10-16T01:01:29;98496.41;;;21.90;57.53
14902;BME280;7542;49.078;9.194;2022-10-16T01:02:31;98496.41;;;21.90;57.10
14902;BME280;7542;49.078;9.194;2022-10-16T01:03:36;98498.03;;;21.91;57.32
14902;BME280;7542;49.078;9.194;2022-10-16T01:04:42;98495.16;;;21.93;57.50
14902;BME280;7542;49.078;9.194;2022-10-16T01:05:59;98491.63;;;21.92;57.41
14902;BME280;7542;49.078;9.194;2022-10-16T01:13:21;98494.00;;;21.89;57.09
14902;BME280;7542;49.078;9.194;2022-10-16T01:16:13;98487.59;;;21.90;57.41
14902;BME280;7542;49.078;9.194;2022-10-16T01:17:35;98490.28;;;21.90;57.54
14902;BME280;7542;49.078;9.194;2022-10-16T01:19:16;98488.41;;;21.90;57.40
14902;BME280;7542;49.078;9.194;2022-10-16T01:20:43;98489.22;;;21.91;57.19
14902;BME280;7542;49.078;9.194;2022-10-16T01:21:51;98479.59;;;21.90;57.30
14902;BME280;7542;49.078;9.194;2022-10-16T01:24:49;98472.91;;;21.87;57.26
14902;BME280;7542;49.078;9.194;2022-10-16T01:27:30;98477.94;;;21.84;57.16
14902;BME280;7542;49.078;9.194;2022-10-16T01:29:03;98479.53;;;21.85;57.22
14902;BME280;7542;49.078;9.194;2022-10-16T01:30:21;98481.16;;;21.86;57.37
14902;BME280;7542;49.078;9.194;2022-10-16T01:31:32;98484.06;;;21.84;57.54
14902;BME280;7542;49.078;9.194;2022-10-16T01:34:01;98487.53;;;21.85;57.50
14902;BME280;7542;49.078;9.194;2022-10-16T01:35:18;98492.63;;;21.86;57.49
14902;BME280;7542;49.078;9.194;2022-10-16T01:36:30;98482.22;;;21.85;57.40
14902;BME280;7542;49.078;9.194;2022-10-16T01:38:52;98490.22;;;21.85;57.26
14902;BME280;7542;49.078;9.194;2022-10-16T01:40:00;98498.22;;;21.85;57.22
14902;BME280;7542;49.078;9.194;2022-10-16T01:41:15;98502.50;;;21.86;57.15
14902;BME280;7542;49.078;9.194;2022-10-16T01:42:24;98497.97;;;21.86;57.42
14902;BME280;7542;49.078;9.194;2022-10-16T01:44:05;98497.16;;;21.86;57.25
14902;BME280;7542;49.078;9.194;2022-10-16T01:45:11;98502.50;;;21.86;57.39
14902;BME280;7542;49.078;9.194;2022-10-16T01:46:18;98495.56;;;21.85;57.21
14902;BME280;7542;49.078;9.194;2022-10-16T01:47:24;98505.97;;;21.86;57.37
14902;BME280;7542;49.078;9.194;2022-10-16T01:48:29;98501.69;;;21.85;57.42
14902;BME280;7542;49.078;9.194;2022-10-16T01:49:35;98500.66;;;21.86;57.27
14902;BME280;7542;49.078;9.194;2022-10-16T01:50:41;98500.41;;;21.88;57.42
14902;BME280;7542;49.078;9.194;2022-10-16T01:51:50;98498.78;;;21.87;57.45
14902;BME280;7542;49.078;9.194;2022-10-16T01:52:55;98501.44;;;21.87;57.63
14902;BME280;7542;49.078;9.194;2022-10-16T01:54:01;98499.34;;;21.89;57.16
14902;BME280;7542;49.078;9.194;2022-10-16T01:55:06;98498.78;;;21.87;57.69
14902;BME280;7542;49.078;9.194;2022-10-16T01:56:12;98496.66;;;21.89;57.54
14902;BME280;7542;49.078;9.194;2022-10-16T01:57:18;98495.06;;;21.88;57.78
14902;BME280;7542;49.078;9.194;2022-10-16T01:58:23;98489.97;;;21.86;57.40
14902;BME280;7542;49.078;9.194;2022-10-16T01:59:31;98499.34;;;21.89;57.20
14902;BME280;7542;49.078;9.194;2022-10-16T02:00:38;98491.56;;;21.87;57.70
14902;BME280;7542;49.078;9.194;2022-10-16T02:01:47;98488.09;;;21.87;57.37
14902;BME280;7542;49.078;9.194;2022-10-16T02:02:53;98490.53;;;21.88;57.65
14902;BME280;7542;49.078;9.194;2022-10-16T02:04:13;98492.38;;;21.88;57.07
14902;BME280;7542;49.078;9.194;2022-10-16T02:05:29;98489.72;;;21.88;57.53
14902;BME280;7542;49.078;9.194;2022-10-16T02:06:32;98484.38;;;21.88;57.00
14902;BME280;7542;49.078;9.194;2022-10-16T02:07:34;98479.03;;;21.88;57.52
14902;BME280;7542;49.078;9.194;2022-10-16T02:08:36;98476.38;;;21.88;57.27
14902;BME280;7542;49.078;9.194;2022-10-16T02:09:38;98475.81;;;21.86;57.69
14902;BME280;7542;49.078;9.194;2022-10-16T02:10:41;98476.63;;;21.86;57.57
14902;BME280;7542;49.078;9.194;2022-10-16T02:11:44;98479.53;;;21.85;57.33
14902;BME280;7542;49.078;9.194;2022-10-16T02:12:54;98484.38;;;21.88;57.37
14902;BME280;7542;49.078;9.194;2022-10-16T02:14:05;98479.03;;;21.88;57.15
14902;BME280;7542;49.078;9.194;2022-10-16T02:15:08;98487.03;;;21.88;57.44
14902;BME280;7542;49.078;9.194;2022-10-16T02:16:12;98491.34;;;21.89;56.87
14902;BME280;7542;49.078;9.194;2022-10-16T02:17:17;98489.72;;;21.88;57.42
14902;BME280;7542;49.078;9.194;2022-10-16T02:18:19;98493.19;;;21.88;57.25
14902;BME280;7542;49.078;9.194;2022-10-16T02:19:22;98488.66;;;21.89;57.06
14902;BME280;7542;49.078;9.194;2022-10-16T02:20:29;98497.22;;;21.91;57.07
14902;BME280;7542;49.078;9.194;2022-10-16T02:21:47;98495.38;;;21.91;57.22
14902;BME280;7542;49.078;9.194;2022-10-16T02:22:52;98487.34;;;21.91;57.37
14902;BME280;7542;49.078;9.194;2022-10-16T02:24:28;98490.84;;;21.92;57.31
14902;BME280;7542;49.078;9.194;2022-10-16T02:25:40;98490.38;;;21.95;57.28
14902;BME280;7542;49.078;9.194;2022-10-16T02:28:40;98496.75;;;21.94;57.30
14902;BME280;7542;49.078;9.194;2022-10-16T02:29:50;98490.63;;;21.93;56.87
14902;BME280;7542;49.078;9.194;2022-10-16T02:31:17;98494.91;;;21.94;57.35
14902;BME280;7542;49.078;9.194;2022-10-16T02:32:24;98498.13;;;21.96;57.28
14902;BME280;7542;49.078;9.194;2022-10-16T02:33:30;98501.03;;;21.95;57.06
14902;BME280;7542;49.078;9.194;2022-10-16T02:34:34;98493.28;;;21.93;57.28
14902;BME280;7542;49.078;9.194;2022-10-16T02:35:38;98494.66;;;21.96;56.86
14902;BME280;7542;49.078;9.194;2022-10-16T02:36:43;98493.59;;;21.97;57.04
14902;BME280;7542;49.078;9.194;2022-10-16T02:37:48;98491.97;;;21.96;56.49
14902;BME280;7542;49.078;9.194;2022-10-16T02:38:51;98491.97;;;21.96;57.16
14902;BME280;7542;49.078;9.194;2022-10-16T02:39:56;98482.34;;;21.95;57.07
14902;BME280;7542;49.078;9.194;2022-10-16T02:40:59;98486.31;;;21.92;57.24
14902;BME280;7542;49.078;9.194;2022-10-16T02:42:01;98482.59;;;21.93;56.88
14902;BME280;7542;49.078;9.194;2022-10-16T02:43:04;98486.09;;;21.94;57.00
14902;BME280;7542;49.078;9.194;2022-10-16T02:44:06;98494.91;;;21.94;56.99
14902;BME280;7542;49.078;9.194;2022-10-16T02:45:11;98495.69;;;21.95;56.91
14902;BME280;7542;49.078;9.194;2022-10-16T02:46:12;98494.91;;;21.94;56.84
14902;BME280;7542;49.078;9.194;2022-10-16T02:47:14;98495.16;;;21.93;56.78
14902;BME280;7542;49.078;9.194;2022-10-16T02:48:16;98495.16;;;21.93;57.18
14902;BME280;7542;49.078;9.194;2022-10-16T02:49:18;98494.09;;;21.94;56.74
14902;BME280;7542;49.078;9.194;2022-10-16T02:50:20;98498.84;;;21.92;57.17
14902;BME280;7542;49.078;9.194;2022-10-16T02:51:22;98506.03;;;21.91;57.15
14902;BME280;7542;49.078;9.194;2022-10-16T02:52:23;98503.38;;;21.91;57.30
14902;BME280;7542;49.078;9.194;2022-10-16T02:53:26;98501.75;;;21.90;57.26
14902;BME280;7542;49.078;9.194;2022-10-16T02:54:27;98505.81;;;21.93;57.10
14902;BME280;7542;49.078;9.194;2022-10-16T02:55:29;98504.97;;;21.92;57.00
14902;BME280;7542;49.078;9.194;2022-10-16T02:56:31;98497.81;;;21.93;57.21
14902;BME280;7542;49.078;9.194;2022-10-16T02:57:33;98500.47;;;21.93;57.01
14902;BME280;7542;49.078;9.194;2022-10-16T02:58:35;98502.09;;;21.94;57.10
14902;BME280;7542;49.078;9.194;2022-10-16T02:59:36;98506.63;;;21.93;56.77
14902;BME280;7542;49.078;9.194;2022-10-16T03:00:39;98503.16;;;21.93;56.84
14902;BME280;7542;49.078;9.194;2022-10-16T03:01:40;98504.78;;;21.94;57.07
14902;BME280;7542;49.078;9.194;2022-10-16T03:02:42;98503.72;;;21.95;56.98
14902;BME280;7542;49.078;9.194;2022-10-16T03:03:44;98509.59;;;21.97;56.86
14902;BME280;7542;49.078;9.194;2022-10-16T03:04:46;98513.09;;;21.97;57.03
14902;BME280;7542;49.078;9.194;2022-10-16T03:05:48;98516.56;;;21.98;56.87
14902;BME280;7542;49.078;9.194;2022-10-16T03:06:49;98514.69;;;21.98;56.81
14902;BME280;7542;49.078;9.194;2022-10-16T03:07:51;98517.94;;;22.00;56.67
14902;BME280;7542;49.078;9.194;2022-10-16T03:08:54;98512.84;;;21.99;56.67
14902;BME280;7542;49.078;9.194;2022-10-16T03:09:55;98517.13;;;22.00;56.78
14902;BME280;7542;49.078;9.194;2022-10-16T03:10:57;98513.38;;;22.01;56.88
14902;BME280;7542;49.078;9.194;2022-10-16T03:11:59;98510.72;;;22.01;57.01
14902;BME280;7542;49.078;9.194;2022-10-16T03:13:01;98511.53;;;22.02;57.00
14902;BME280;7542;49.078;9.194;2022-10-16T03:14:03;98507.25;;;22.00;57.09
14902;BME280;7542;49.078;9.194;2022-10-16T03:15:05;98505.38;;;22.01;56.80
14902;BME280;7542;49.078;9.194;2022-10-16T03:16:08;98506.44;;;22.00;57.02
14902;BME280;7542;49.078;9.194;2022-10-16T03:17:10;98509.66;;;22.02;57.10
14902;BME280;7542;49.078;9.194;2022-10-16T03:18:11;98505.38;;;22.01;56.86
14902;BME280;7542;49.078;9.194;2022-10-16T03:19:16;98510.72;;;22.01;56.75
14902;BME280;7542;49.078;9.194;2022-10-16T03:20:17;98510.72;;;22.01;57.17
14902;BME280;7542;49.078;9.194;2022-10-16T03:21:19;98507.25;;;22.00;56.61
14902;BME280;7542;49.078;9.194;2022-10-16T03:22:21;98498.44;;;22.00;56.98
14902;BME280;7542;49.078;9.194;2022-10-16T03:23:22;98509.09;;;22.00;56.87
14902;BME280;7542;49.078;9.194;2022-10-16T03:24:24;98505.88;;;21.98;57.01
14902;BME280;7542;49.078;9.194;2022-10-16T03:25:26;98509.34;;;21.98;56.81
14902;BME280;7542;49.078;9.194;2022-10-16T03:26:28;98509.09;;;22.00;56.87
14902;BME280;7542;49.078;9.194;2022-10-16T03:27:30;98516.06;;;22.01;56.60
14902;BME280;7542;49.078;9.194;2022-10-16T03:28:31;98514.44;;;22.00;57.16
14902;BME280;7542;49.078;9.194;2022-10-16T03:29:33;98511.22;;;21.98;56.80
14902;BME280;7542;49.078;9.194;2022-10-16T03:30:35;98512.03;;;21.98;56.82
14902;BME280;7542;49.078;9.194;2022-10-16T03:31:37;98513.88;;;21.98;56.46
14902;BME280;7542;49.078;9.194;2022-10-16T03:32:39;98512.28;;;21.97;56.82
14902;BME280;7542;49.078;9.194;2022-10-16T03:33:40;98516.81;;;21.96;56.48
14902;BME280;7542;49.078;9.194;2022-10-16T03:34:42;98518.66;;;21.96;56.59
14902;BME280;7542;49.078;9.194;2022-10-16T03:35:52;98511.72;;;21.95;56.94
14902;BME280;7542;49.078;9.194;2022-10-16T03:36:55;98511.72;;;21.95;56.79
14902;BME280;7542;49.078;9.194;2022-10-16T03:37:56;98519.47;;;21.96;56.33
14902;BME280;7542;49.078;9.194;2022-10-16T03:38:58;98515.44;;;21.94;56.67
14902;BME280;7542;49.078;9.194;2022-10-16T03:40:00;98511.16;;;21.93;56.99
14902;BME280;7542;49.078;9.194;2022-10-16T03:41:02;98514.84;;;21.92;56.83
14902;BME280;7542;49.078;9.194;2022-10-16T03:42:05;98519.38;;;21.91;56.98
14902;BME280;7542;49.078;9.194;2022-10-16T03:43:07;98519.16;;;21.93;56.78
14902;BME280;7542;49.078;9.194;2022-10-16T03:44:09;98521.25;;;21.91;57.08
14902;BME280;7542;49.078;9.194;2022-10-16T03:45:11;98517.78;;;21.90;56.80
14902;BME280;7542;49.078;9.194;2022-10-16T03:46:13;98522.06;;;21.91;56.47
14902;BME280;7542;49.078;9.194;2022-10-16T03:47:15;98519.38;;;21.91;56.69
14902;BME280;7542;49.078;9.194;2022-10-16T03:48:18;98517.53;;;21.92;56.72
14902;BME280;7542;49.078;9.194;2022-10-16T03:49:20;98520.44;;;21.90;56.98
14902;BME280;7542;49.078;9.194;2022-10-16T03:50:22;98514.31;;;21.90;56.96
14902;BME280;7542;49.078;9.194;2022-10-16T03:51:24;98511.63;;;21.90;57.02
14902;BME280;7542;49.078;9.194;2022-10-16T03:52:26;98514.31;;;21.90;56.97
14902;BME280;7542;49.078;9.194;2022-10-16T03:53:28;98508.16;;;21.89;56.78
14902;BME280;7542;49.078;9.194;2022-10-16T03:54:29;98511.63;;;21.90;56.65
14902;BME280;7542;49.078;9.194;2022-10-16T03:55:31;98512.69;;;21.89;56.82
14902;BME280;7542;49.078;9.194;2022-10-16T03:56:33;98510.00;;;21.89;56.51
14902;BME280;7542;49.078;9.194;2022-10-16T03:57:35;98517.22;;;21.88;56.96
14902;BME280;7542;49.078;9.194;2022-10-16T03:58:36;98510.81;;;21.89;56.89
14902;BME280;7542;49.078;9.194;2022-10-16T03:59:38;98512.44;;;21.90;56.76
14902;BME280;7542;49.078;9.194;2022-10-16T04:00:44;98515.09;;;21.90;56.78
14902;BME280;7542;49.078;9.194;2022-10-16T04:01:46;98511.63;;;21.90;56.93
14902;BME280;7542;49.078;9.194;2022-10-16T04:02:48;98510.56;;;21.91;56.73
14902;BME280;7542;49.078;9.194;2022-10-16T04:03:49;98514.31;;;21.90;57.03
14902;BME280;7542;49.078;9.194;2022-10-16T04:04:51;98505.22;;;21.91;56.77
14902;BME280;7542;49.078;9.194;2022-10-16T04:05:53;98507.34;;;21.89;56.84
14902;BME280;7542;49.078;9.194;2022-10-16T04:06:55;98500.94;;;21.90;56.58
14902;BME280;7542;49.078;9.194;2022-10-16T04:07:56;98510.56;;;21.91;56.56
14902;BME280;7542;49.078;9.194;2022-10-16T04:08:58;98508.97;;;21.90;56.89
14902;BME280;7542;49.078;9.194;2022-10-16T04:10:00;98515.09;;;21.90;56.42
14902;BME280;7542;49.078;9.194;2022-10-16T04:11:03;98517.53;;;21.92;56.78
14902;BME280;7542;49.078;9.194;2022-10-16T04:12:04;98514.84;;;21.92;56.68
14902;BME280;7542;49.078;9.194;2022-10-16T04:13:06;98510.56;;;21.91;56.58
14902;BME280;7542;49.078;9.194;2022-10-16T04:14:08;98509.75;;;21.90;56.68
14902;BME280;7542;49.078;9.194;2022-10-16T04:15:10;98512.44;;;21.90;57.07
14902;BME280;7542;49.078;9.194;2022-10-16T04:16:12;98517.53;;;21.92;56.58
14902;BME280;7542;49.078;9.194;2022-10-16T04:17:13;98525.53;;;21.92;56.57
14902;BME280;7542;49.078;9.194;2022-10-16T04:18:15;98520.19;;;21.92;56.68
14902;BME280;7542;49.078;9.194;2022-10-16T04:19:17;98529.00;;;21.92;56.82
14902;BME280;7542;49.078;9.194;2022-10-16T04:20:19;98523.13;;;21.90;56.79
14902;BME280;7542;49.078;9.194;2022-10-16T04:21:20;98522.06;;;21.91;56.41
14902;BME280;7542;49.078;9.194;2022-10-16T04:22:22;98523.66;;;21.92;56.36
14902;BME280;7542;49.078;9.194;2022-10-16T04:23:24;98520.19;;;21.92;56.57
14902;BME280;7542;49.078;9.194;2022-10-16T04:24:26;98528.19;;;21.92;56.30
14902;BME280;7542;49.078;9.194;2022-10-16T04:25:28;98523.66;;;21.92;56.46
14902;BME280;7542;49.078;9.194;2022-10-16T04:26:30;98527.19;;;21.93;56.37
14902;BME280;7542;49.078;9.194;2022-10-16T04:27:32;98519.38;;;21.91;56.61
14902;BME280;7542;49.078;9.194;2022-10-16T04:28:34;98524.72;;;21.91;56.45
14902;BME280;7542;49.078;9.194;2022-10-16T04:29:35;98528.44;;;21.90;56.33
14902;BME280;7542;49.078;9.194;2022-10-16T04:30:38;98532.72;;;21.91;56.38
14902;BME280;7542;49.078;9.194;2022-10-16T04:31:40;98532.19;;;21.89;56.35
14902;BME280;7542;49.078;9.194;2022-10-16T04:32:42;98521.25;;;21.91;56.21
14902;BME280;7542;49.078;9.194;2022-10-16T04:33:44;98530.06;;;21.91;56.38
14902;BME280;7542;49.078;9.194;2022-10-16T04:34:46;98538.88;;;21.92;56.62
14902;BME280;7542;49.078;9.194;2022-10-16T04:35:47;98536.72;;;21.89;56.58
14902;BME280;7542;49.078;9.194;2022-10-16T04:36:49;98541.00;;;21.90;56.69
14902;BME280;7542;49.078;9.194;2022-10-16T04:37:51;98541.78;;;21.90;56.38
14902;BME280;7542;49.078;9.194;2022-10-16T04:38:53;98544.22;;;21.92;56.31
14902;BME280;7542;49.078;9.194;2022-10-16T04:39:55;98544.72;;;21.89;56.63
14902;BME280;7542;49.078;9.194;2022-10-16T04:40:57;98546.31;;;21.90;56.58
14902;BME280;7542;49.078;9.194;2022-10-16T04:41:58;98545.53;;;21.89;56.36
14902;BME280;7542;49.078;9.194;2022-10-16T04:43:00;98544.47;;;21.90;56.39
14902;BME280;7542;49.078;9.194;2022-10-16T04:44:02;98545.53;;;21.89;56.58
14902;BME280;7542;49.078;9.194;2022-10-16T04:45:05;98547.13;;;21.90;56.63
14902;BME280;7542;49.078;9.194;2022-10-16T04:46:07;98542.84;;;21.89;56.64
14902;BME280;7542;49.078;9.194;2022-10-16T04:47:09;98547.94;;;21.91;56.51
14902;BME280;7542;49.078;9.194;2022-10-16T04:48:11;98546.56;;;21.88;56.68
14902;BME280;7542;49.078;9.194;2022-10-16T04:49:13;98551.91;;;21.88;56.32
14902;BME280;7542;49.078;9.194;2022-10-16T04:50:14;98557.00;;;21.90;56.37
14902;BME280;7542;49.078;9.194;2022-10-16T04:51:16;98556.69;;;21.86;56.37
14902;BME280;7542;49.078;9.194;2022-10-16T04:52:20;98553.22;;;21.86;56.39
14902;BME280;7542;49.078;9.194;2022-10-16T04:53:23;98556.69;;;21.86;56.40
14902;BME280;7542;49.078;9.194;2022-10-16T04:54:25;98559.38;;;21.86;56.26
14902;BME280;7542;49.078;9.194;2022-10-16T04:55:26;98559.38;;;21.86;56.47
14902;BME280;7542;49.078;9.194;2022-10-16T04:56:28;98557.19;;;21.83;56.56
14902;BME280;7542;49.078;9.194;2022-10-16T04:57:30;98558.81;;;21.84;56.52
14902;BME280;7542;49.078;9.194;2022-10-16T04:58:32;98556.13;;;21.84;56.76
14902;BME280;7542;49.078;9.194;2022-10-16T04:59:34;98565.75;;;21.85;57.06
14902;BME280;7542;49.078;9.194;2022-10-16T05:00:36;98565.75;;;21.85;56.66
14902;BME280;7542;49.078;9.194;2022-10-16T05:01:40;98560.41;;;21.85;56.87
14902;BME280;7542;49.078;9.194;2022-10-16T05:02:42;98554.28;;;21.85;56.81
14902;BME280;7542;49.078;9.194;2022-10-16T05:03:43;98556.13;;;21.84;56.71
14902;BME280;7542;49.078;9.194;2022-10-16T05:04:45;98564.16;;;21.84;57.03
14902;BME280;7542;49.078;9.194;2022-10-16T05:05:47;98564.94;;;21.85;56.70
14902;BME280;7542;49.078;9.194;2022-10-16T05:06:49;98567.06;;;21.83;56.39
14902;BME280;7542;49.078;9.194;2022-10-16T05:07:51;98567.06;;;21.83;56.92
14902;BME280;7542;49.078;9.194;2022-10-16T05:08:53;98564.03;;;21.79;56.69
14902;BME280;7542;49.078;9.194;2022-10-16T05:09:55;98571.25;;;21.79;56.84
14902;BME280;7542;49.078;9.194;2022-10-16T05:10:56;98566.16;;;21.77;56.58
14902;BME280;7542;49.078;9.194;2022-10-16T05:11:58;98576.84;;;21.77;56.57
14902;BME280;7542;49.078;9.194;2022-10-16T05:13:00;98570.44;;;21.78;56.74
14902;BME280;7542;49.078;9.194;2022-10-16T05:14:02;98572.06;;;21.79;56.42
14902;BME280;7542;49.078;9.194;2022-10-16T05:15:05;98571.81;;;21.81;56.83
14902;BME280;7542;49.078;9.194;2022-10-16T05:16:07;98579.00;;;21.80;56.35
14902;BME280;7542;49.078;9.194;2022-10-16T05:17:08;98574.72;;;21.79;56.89
14902;BME280;7542;49.078;9.194;2022-10-16T05:18:10;98572.88;;;21.80;56.39
14902;BME280;7542;49.078;9.194;2022-10-16T05:19:12;98573.09;;;21.78;56.48
14902;BME280;7542;49.078;9.194;2022-10-16T05:20:29;98571.25;;;21.79;56.68
14902;BME280;7542;49.078;9.194;2022-10-16T05:21:31;98569.63;;;21.78;56.60
14902;BME280;7542;49.078;9.194;2022-10-16T05:22:33;98569.38;;;21.79;56.51
14902;BME280;7542;49.078;9.194;2022-10-16T05:23:35;98568.00;;;21.77;56.50
14902;BME280;7542;49.078;9.194;2022-10-16T05:24:36;98566.97;;;21.78;56.80
14902;BME280;7542;49.078;9.194;2022-10-16T05:25:38;98573.34;;;21.77;56.57
14902;BME280;7542;49.078;9.194;2022-10-16T05:26:40;98573.34;;;21.77;56.93
14902;BME280;7542;49.078;9.194;2022-10-16T05:27:42;98576.59;;;21.79;56.16
14902;BME280;7542;49.078;9.194;2022-10-16T05:28:43;98569.63;;;21.78;56.93
14902;BME280;7542;49.078;9.194;2022-10-16T05:29:46;98572.06;;;21.79;56.74
14902;BME280;7542;49.078;9.194;2022-10-16T05:30:48;98572.88;;;21.80;56.71
14902;BME280;7542;49.078;9.194;2022-10-16T05:31:52;98569.94;;;21.81;56.55
14902;BME280;7542;49.078;9.194;2022-10-16T05:32:54;98572.41;;;21.83;56.68
14902;BME280;7542;49.078;9.194;2022-10-16T05:34:00;98567.06;;;21.83;56.66
14902;BME280;7542;49.078;9.194;2022-10-16T05:35:02;98567.88;;;21.83;56.67
14902;BME280;7542;49.078;9.194;2022-10-16T05:36:08;98562.28;;;21.85;56.73
14902;BME280;7542;49.078;9.194;2022-10-16T05:37:11;98566.81;;;21.84;56.59
14902;BME280;7542;49.078;9.194;2022-10-16T05:38:14;98567.63;;;21.85;56.33
14902;BME280;7542;49.078;9.194;2022-10-16T05:39:16;98563.91;;;21.86;56.49
14902;BME280;7542;49.078;9.194;2022-10-16T05:40:18;98568.19;;;21.87;56.28
14902;BME280;7542;49.078;9.194;2022-10-16T05:41:19;98561.22;;;21.86;56.58
14902;BME280;7542;49.078;9.194;2022-10-16T05:42:23;98559.13;;;21.88;56.62
14902;BME280;7542;49.078;9.194;2022-10-16T05:43:26;98562.84;;;21.87;56.86
14902;BME280;7542;49.078;9.194;2022-10-16T05:44:28;98560.97;;;21.87;56.79
14902;BME280;7542;49.078;9.194;2022-10-16T05:45:30;98557.75;;;21.85;56.60
14902;BME280;7542;49.078;9.194;2022-10-16T05:46:32;98558.56;;;21.86;56.58
14902;BME280;7542;49.078;9.194;2022-10-16T05:47:34;98560.41;;;21.85;56.51
14902;BME280;7542;49.078;9.194;2022-10-16T05:48:36;98568.19;;;21.87;56.39
14902;BME280;7542;49.078;9.194;2022-10-16T05:49:38;98556.44;;;21.88;56.72
14902;BME280;7542;49.078;9.194;2022-10-16T05:50:42;98562.59;;;21.88;56.43
14902;BME280;7542;49.078;9.194;2022-10-16T05:51:44;98567.69;;;21.90;56.53
14902;BME280;7542;49.078;9.194;2022-10-16T05:52:45;98567.94;;;21.88;56.36
14902;BME280;7542;49.078;9.194;2022-10-16T05:53:47;98564.22;;;21.89;56.36
14902;BME280;7542;49.078;9.194;2022-10-16T05:54:49;98566.88;;;21.89;56.72
14902;BME280;7542;49.078;9.194;2022-10-16T05:55:58;98571.97;;;21.91;56.44
14902;BME280;7542;49.078;9.194;2022-10-16T05:56:59;98573.03;;;21.90;56.43
14902;BME280;7542;49.078;9.194;2022-10-16T05:58:01;98576.75;;;21.89;56.51
14902;BME280;7542;49.078;9.194;2022-10-16T05:59:04;98578.38;;;21.90;56.22
14902;BME280;7542;49.078;9.194;2022-10-16T06:00:07;98581.03;;;21.90;56.35
14902;BME280;7542;49.078;9.194;2022-10-16T06:01:16;98581.03;;;21.90;56.25